Time;durP1;ratioP1;P1;durP2;ratioP2;P2;SDS_P1;SDS_P2;PMS_P1;PMS_P2;Temp;Humidity;BMP_temperature;BMP_pressure;BME280_temperature;BME280_humidity;BME280_pressure;Samples;Min_cycle;Max_cycle;Signal;HPM_P1;HPM_P2
2022/03/23 00:00:21;;;;;;;;;;;;;;;22.32;38.95;101944.34;20552690;28;97832;-75
2022/03/23 00:10:22;;;;;;;;;;;;;;;22.32;39.39;101929.34;20568088;28;97629;-76
2022/03/23 00:20:24;;;;;;;;;;;;;;;22.32;39.12;101936.41;20570587;28;96968;-75
2022/03/23 00:30:25;;;;;;;;;;;;;;;22.29;39.05;101928.66;20565707;28;97707;-76
2022/03/23 00:40:28;;;;;;;;;;;;;;;22.28;39.57;101922.56;20574929;28;97806;-75
2022/03/23 00:50:28;;;;;;;;;;;;;;;22.23;39.16;101911.41;20569375;28;100762;-75
2022/03/23 01:00:31;;;;;;;;;;;;;;;22.21;39.54;101908.84;20552599;28;98067;-77
2022/03/23 01:10:34;;;;;;;;;;;;;;;22.21;39.35;101910.66;20560173;28;97765;-76
2022/03/23 01:20:35;;;;;;;;;;;;;;;22.18;39.33;101908.16;20567681;28;97096;-76
2022/03/23 01:30:36;;;;;;;;;;;;;;;22.14;39.06;101907.53;20571512;28;96987;-76
2022/03/23 01:40:37;;;;;;;;;;;;;;;22.14;39.50;101898.75;20557326;28;102407;-76
2022/03/23 01:50:40;;;;;;;;;;;;;;;22.16;39.31;101902.16;20567870;28;97086;-76
2022/03/23 02:00:41;;;;;;;;;;;;;;;22.11;39.28;101901.56;20565572;28;97378;-76
2022/03/23 02:10:41;;;;;;;;;;;;;;;22.09;39.60;101893.72;20569777;28;97971;-77
2022/03/23 02:20:46;;;;;;;;;;;;;;;22.05;39.66;101895.69;20554946;28;97001;-77
2022/03/23 02:30:46;;;;;;;;;;;;;;;22.04;39.58;101898.44;20554381;28;97930;-76
2022/03/23 02:40:47;;;;;;;;;;;;;;;22.03;39.46;101894.94;20563769;28;99094;-76
2022/03/23 02:50:48;;;;;;;;;;;;;;;22.00;39.47;101900.38;20566152;28;99055;-75
2022/03/23 03:11:10;;;;;;;;;;;;;;;21.97;39.81;101902.34;20563704;28;101040;-75
2022/03/23 03:21:10;;;;;;;;;;;;;;;21.97;39.58;101894.44;20577299;28;102376;-75
2022/03/23 03:31:12;;;;;;;;;;;;;;;21.93;39.50;101896.41;20564926;28;97991;-74
2022/03/23 03:41:13;;;;;;;;;;;;;;;21.92;39.66;101902.59;20554696;28;98371;-76
2022/03/23 03:51:13;;;;;;;;;;;;;;;21.89;39.76;101908.91;20556573;28;97607;-75
2022/03/23 04:01:14;;;;;;;;;;;;;;;21.88;39.65;101911.63;20567939;28;97614;-76
2022/03/23 04:11:14;;;;;;;;;;;;;;;21.86;39.61;101906.47;20574094;28;97704;-76
2022/03/23 04:21:15;;;;;;;;;;;;;;;21.84;39.77;101907.47;20576646;28;97675;-75
2022/03/23 04:31:15;;;;;;;;;;;;;;;21.81;39.78;101920.81;20556647;28;97559;-75
2022/03/23 04:41:16;;;;;;;;;;;;;;;21.79;40.08;101917.41;20576698;28;97969;-75
2022/03/23 04:51:16;;;;;;;;;;;;;;;21.78;39.69;101913.94;20577127;28;97214;-75
2022/03/23 05:01:17;;;;;;;;;;;;;;;21.83;40.72;101918.97;20570324;28;99011;-76
2022/03/23 05:11:17;;;;;;;;;;;;;;;21.93;41.59;101933.31;20580447;28;101138;-75
2022/03/23 05:21:19;;;;;;;;;;;;;;;21.97;41.96;101931.34;20556192;28;98564;-72
2022/03/23 05:31:19;;;;;;;;;;;;;;;22.12;41.33;101945.47;20554288;28;100158;-77
2022/03/23 05:41:20;;;;;;;;;;;;;;;22.05;34.62;101932.63;20567988;28;100093;-74
2022/03/23 05:51:20;;;;;;;;;;;;;;;21.82;34.38;101941.81;20581311;28;98320;-77
2022/03/23 06:01:23;;;;;;;;;;;;;;;21.94;36.93;101940.28;20550965;28;98265;-80
2022/03/23 06:11:23;;;;;;;;;;;;;;;21.82;35.49;101941.00;20576460;28;97373;-77
2022/03/23 06:21:24;;;;;;;;;;;;;;;21.89;37.04;101942.34;20572025;28;97036;-78
2022/03/23 06:31:24;;;;;;;;;;;;;;;21.64;32.30;101945.47;20564286;28;97286;-76
2022/03/23 06:41:24;;;;;;;;;;;;;;;21.95;36.78;101936.72;20555091;28;97426;-79
2022/03/23 06:51:25;;;;;;;;;;;;;;;22.02;37.99;101943.38;20586543;28;97707;-78
2022/03/23 07:01:25;;;;;;;;;;;;;;;22.07;38.08;101943.94;20590127;28;98182;-79
2022/03/23 07:11:27;;;;;;;;;;;;;;;22.10;38.76;101937.63;20593156;28;97466;-79
2022/03/23 07:21:28;;;;;;;;;;;;;;;22.14;38.86;101941.81;20599445;28;97796;-78
2022/03/23 07:31:28;;;;;;;;;;;;;;;22.20;39.38;101932.69;20606796;28;97597;-78
2022/03/23 07:41:28;;;;;;;;;;;;;;;22.25;39.59;101932.44;20597422;28;99573;-78
2022/03/23 07:51:28;;;;;;;;;;;;;;;22.27;39.19;101928.75;20592652;28;97342;-78
2022/03/23 08:01:29;;;;;;;;;;;;;;;22.27;39.64;101934.03;20590229;28;97584;-79
2022/03/23 08:11:29;;;;;;;;;;;;;;;22.29;39.33;101939.22;20587263;28;97735;-78
2022/03/23 08:21:32;;;;;;;;;;;;;;;22.30;39.43;101933.00;20584379;28;98081;-78
2022/03/23 08:31:33;;;;;;;;;;;;;;;22.33;39.18;101927.56;20569059;28;97117;-76
2022/03/23 08:41:34;;;;;;;;;;;;;;;22.38;39.31;101914.97;20570565;28;97484;-76
2022/03/23 08:51:34;;;;;;;;;;;;;;;22.38;39.70;101915.81;20571140;28;97504;-76
2022/03/23 09:01:35;;;;;;;;;;;;;;;22.38;38.62;101907.91;20579659;28;98146;-76
2022/03/23 09:11:36;;;;;;;;;;;;;;;22.41;38.65;101903.38;20578303;28;97414;-75
2022/03/23 09:21:38;;;;;;;;;;;;;;;22.44;38.62;101893.50;20585097;28;97584;-76
2022/03/23 09:31:39;;;;;;;;;;;;;;;22.48;38.82;101881.81;20577127;28;97775;-75
2022/03/23 09:41:47;;;;;;;;;;;;;;;22.50;39.03;101876.47;20819648;27;97362;-75
2022/03/23 09:51:51;;;;;;;;;;;;;;;22.52;39.14;101875.44;20804930;27;97434;-76
2022/03/23 10:01:51;;;;;;;;;;;;;;;22.56;38.76;101868.19;20810934;27;101831;-75
2022/03/23 10:12:10;;;;;;;;;;;;;;;22.59;38.65;101848.66;20780810;27;97764;-75
2022/03/23 10:22:12;;;;;;;;;;;;;;;22.63;38.66;101843.09;20796724;27;96785;-75
2022/03/23 10:32:13;;;;;;;;;;;;;;;22.67;38.54;101830.56;20802695;27;97807;-75
2022/03/23 10:42:15;;;;;;;;;;;;;;;22.74;38.47;101821.34;20801630;27;97501;-76
2022/03/23 10:52:17;;;;;;;;;;;;;;;22.82;38.37;101805.00;20753391;27;97207;-76
2022/03/23 11:02:18;;;;;;;;;;;;;;;22.88;38.40;101799.34;20743263;27;96947;-76
2022/03/23 11:22:38;;;;;;;;;;;;;;;23.02;38.60;101770.25;20743024;27;100963;-76
2022/03/23 11:32:38;;;;;;;;;;;;;;;23.10;38.59;101753.91;20743433;27;96859;-75
2022/03/23 11:42:39;;;;;;;;;;;;;;;23.19;38.34;101736.66;20743686;27;96895;-75
2022/03/23 11:53:02;;;;;;;;;;;;;;;23.26;38.33;101722.09;20743685;27;96966;-76
2022/03/23 12:03:03;;;;;;;;;;;;;;;23.35;38.09;101702.13;20735513;27;97485;-76
2022/03/23 12:13:15;;;;;;;;;;;;;;;23.34;26.35;101685.44;20725083;27;97302;-77
2022/03/23 12:23:54;;;;;;;;;;;;;;;23.50;26.23;101666.75;20728032;27;96995;-77
2022/03/23 12:34:05;;;;;;;;;;;;;;;23.62;26.20;101649.22;20650718;27;98695;-75
2022/03/23 12:44:10;;;;;;;;;;;;;;;23.76;24.56;101640.34;20662731;27;97309;-75
2022/03/23 13:04:44;;;;;;;;;;;;;;;24.03;25.03;101617.41;20650275;27;97363;-76
2022/03/23 13:14:45;;;;;;;;;;;;;;;24.07;25.44;101616.22;20649750;27;97112;-77
2022/03/23 13:24:59;;;;;;;;;;;;;;;24.06;23.14;101599.53;20644129;27;98282;-77
2022/03/23 13:35:00;;;;;;;;;;;;;;;24.24;24.08;101586.78;20729942;27;97822;-77
2022/03/23 13:45:03;;;;;;;;;;;;;;;24.32;23.15;101573.00;20732485;27;100842;-76
2022/03/23 13:55:04;;;;;;;;;;;;;;;24.27;20.30;101553.94;20717380;27;96997;-77
2022/03/23 14:05:05;;;;;;;;;;;;;;;24.33;23.26;101536.75;20707199;27;97048;-76
2022/03/23 14:15:05;;;;;;;;;;;;;;;24.37;26.10;101525.00;20706986;27;99819;-76
2022/03/23 14:25:06;;;;;;;;;;;;;;;24.43;27.60;101517.44;20718444;27;97899;-77
2022/03/23 14:35:10;;;;;;;;;;;;;;;24.49;29.14;101502.94;20733491;27;97736;-78
2022/03/23 14:45:33;;;;;;;;;;;;;;;24.50;29.61;101496.69;20740921;27;97847;-77
2022/03/23 14:55:36;;;;;;;;;;;;;;;24.52;28.61;101478.84;20736956;27;97148;-74
2022/03/23 15:15:55;;;;;;;;;;;;;;;24.72;30.00;101461.50;20742026;27;97565;-74
2022/03/23 15:25:56;;;;;;;;;;;;;;;24.88;30.25;101455.06;20747223;27;97624;-74
2022/03/23 15:35:58;;;;;;;;;;;;;;;25.00;30.10;101451.47;20746288;27;97038;-74
2022/03/23 15:45:58;;;;;;;;;;;;;;;25.20;30.28;101447.25;20746589;27;97294;-74
2022/03/23 15:55:58;;;;;;;;;;;;;;;25.28;30.17;101444.00;20734608;27;97694;-75
2022/03/23 16:06:00;;;;;;;;;;;;;;;25.22;29.97;101428.59;20731863;27;98494;-75
2022/03/23 16:16:00;;;;;;;;;;;;;;;25.09;29.81;101426.88;20734095;27;97061;-75
2022/03/23 16:26:01;;;;;;;;;;;;;;;24.86;29.08;101423.34;20729283;27;96932;-74
2022/03/23 16:36:02;;;;;;;;;;;;;;;24.65;20.60;101423.19;20656976;27;97124;-75
2022/03/23 16:46:03;;;;;;;;;;;;;;;24.35;17.92;101421.03;20648899;27;97143;-75
2022/03/23 16:56:05;;;;;;;;;;;;;;;24.07;16.68;101420.44;20641201;27;97334;-73
2022/03/23 17:16:25;;;;;;;;;;;;;;;23.57;15.71;101423.97;20626779;27;99723;-74
2022/03/23 17:26:27;;;;;;;;;;;;;;;23.74;19.46;101430.69;20598752;27;97950;-78
2022/03/23 17:36:28;;;;;;;;;;;;;;;23.88;24.14;101434.16;20596938;27;99972;-78
2022/03/23 17:46:29;;;;;;;;;;;;;;;23.92;25.31;101433.81;20610716;27;97841;-80
2022/03/23 17:56:32;;;;;;;;;;;;;;;24.01;26.36;101442.03;20603205;27;100485;-78
2022/03/23 18:06:33;;;;;;;;;;;;;;;24.00;26.20;101438.56;20604451;27;97690;-77
2022/03/23 18:16:34;;;;;;;;;;;;;;;24.01;27.22;101444.69;20621908;27;98737;-77
2022/03/23 18:26:35;;;;;;;;;;;;;;;23.98;27.97;101438.66;20621302;27;97910;-76
2022/03/23 18:36:35;;;;;;;;;;;;;;;23.95;29.03;101440.72;20641488;27;97255;-75
2022/03/23 18:46:36;;;;;;;;;;;;;;;23.86;29.68;101434.22;20650563;27;97151;-75
2022/03/23 18:56:36;;;;;;;;;;;;;;;23.86;29.82;101425.47;20659301;27;96990;-76
2022/03/23 19:06:38;;;;;;;;;;;;;;;23.90;30.54;101413.69;20651665;27;99049;-75
2022/03/23 19:16:38;;;;;;;;;;;;;;;23.92;30.72;101425.03;20635488;27;98465;-76
2022/03/23 19:26:39;;;;;;;;;;;;;;;23.96;31.23;101421.22;20632738;27;98117;-76
2022/03/23 19:36:39;;;;;;;;;;;;;;;23.93;31.65;101416.16;20621770;27;101741;-77
2022/03/23 19:46:40;;;;;;;;;;;;;;;23.85;32.23;101416.66;20689629;27;96945;-80
2022/03/23 19:56:40;;;;;;;;;;;;;;;23.76;32.09;101418.19;20748944;27;97166;-80
2022/03/23 20:06:40;;;;;;;;;;;;;;;23.67;32.00;101418.88;20715207;27;100725;-80
2022/03/23 20:16:43;;;;;;;;;;;;;;;23.58;32.19;101414.22;20705443;27;97326;-79
2022/03/23 20:26:44;;;;;;;;;;;;;;;23.45;32.82;101407.19;20721320;27;97055;-80
2022/03/23 20:36:44;;;;;;;;;;;;;;;23.38;33.16;101403.28;20724967;27;97606;-80
2022/03/23 20:46:44;;;;;;;;;;;;;;;23.33;33.28;101408.88;20725183;27;100105;-80
2022/03/23 20:56:46;;;;;;;;;;;;;;;23.27;33.45;101398.75;20715952;27;97091;-80
2022/03/23 21:06:52;;;;;;;;;;;;;;;23.22;33.23;101408.81;20710806;27;100308;-80
2022/03/23 21:16:53;;;;;;;;;;;;;;;23.19;33.52;101401.06;20726649;27;96949;-81
2022/03/23 21:26:53;;;;;;;;;;;;;;;23.10;33.95;101391.13;20725327;27;97958;-80
2022/03/23 21:36:54;;;;;;;;;;;;;;;23.11;34.02;101403.41;20695089;27;98946;-80
2022/03/23 21:46:54;;;;;;;;;;;;;;;23.07;34.00;101389.56;20706299;27;97944;-81
2022/03/23 21:56:56;;;;;;;;;;;;;;;23.02;34.40;101387.22;20713908;27;97676;-81
2022/03/23 22:06:56;;;;;;;;;;;;;;;22.99;34.61;101382.16;20717191;27;97584;-80
2022/03/23 22:16:57;;;;;;;;;;;;;;;22.99;35.00;101368.94;20720825;27;100726;-81
2022/03/23 22:26:57;;;;;;;;;;;;;;;22.98;34.79;101364.59;20717760;27;97434;-80
2022/03/23 22:36:58;;;;;;;;;;;;;;;22.95;35.29;101356.06;20704292;27;99292;-80
2022/03/23 22:46:58;;;;;;;;;;;;;;;22.96;35.07;101345.41;20716759;27;98355;-81
2022/03/23 22:57:00;;;;;;;;;;;;;;;22.88;35.63;101344.25;20729172;27;99867;-81
2022/03/23 23:07:17;;;;;;;;;;;;;;;22.89;35.53;101338.00;20709624;27;97866;-81
2022/03/23 23:17:18;;;;;;;;;;;;;;;22.86;35.94;101339.06;20734178;27;97455;-81
2022/03/23 23:27:21;;;;;;;;;;;;;;;22.85;36.08;101326.78;20723818;27;97178;-83
2022/03/23 23:37:22;;;;;;;;;;;;;;;22.82;35.70;101324.38;20726055;27;98448;-82
2022/03/23 23:47:24;;;;;;;;;;;;;;;22.79;36.37;101316.66;20742805;27;96871;-82
2022/03/23 23:57:25;;;;;;;;;;;;;;;22.78;36.20;101307.91;20738968;27;97657;-82
